createdAt,value
2018-03-16T00:00:20.404Z,38.03
2018-03-16T00:03:21.791Z,41.83
2018-03-16T00:06:24.046Z,39.83
2018-03-16T00:09:25.561Z,38.50
2018-03-16T00:12:27.512Z,39.53
2018-03-16T00:15:28.805Z,37.67
2018-03-16T00:18:30.830Z,37.73
2018-03-16T00:21:32.121Z,43.57
2018-03-16T00:24:33.556Z,34.27
2018-03-16T00:27:34.826Z,36.63
2018-03-16T00:30:36.250Z,36.27
2018-03-16T00:33:38.243Z,38.47
2018-03-16T00:36:40.229Z,36.17
2018-03-16T00:39:41.810Z,37.17
2018-03-16T00:42:43.046Z,32.90
2018-03-16T00:45:45.190Z,42.10
2018-03-16T00:48:46.582Z,37.47
2018-03-16T00:51:54.913Z,35.10
2018-03-16T00:54:56.352Z,41.33
2018-03-16T00:57:57.590Z,41.30
2018-03-16T01:00:58.823Z,33.90
2018-03-16T01:04:00.821Z,34.43
2018-03-16T01:07:02.067Z,36.67
2018-03-16T01:10:04.089Z,34.57
2018-03-16T01:13:05.332Z,32.90
2018-03-16T01:16:06.586Z,38.43
2018-03-16T01:19:07.830Z,32.83
2018-03-16T01:22:09.829Z,40.43
2018-03-16T01:25:11.172Z,32.70
2018-03-16T01:28:13.190Z,37.10
2018-03-16T01:31:14.423Z,42.27
2018-03-16T01:34:16.449Z,41.57
2018-03-16T01:37:17.674Z,41.93
2018-03-16T01:40:19.658Z,43.30
2018-03-16T01:43:21.645Z,45.43
2018-03-16T01:46:22.891Z,48.03
2018-03-16T01:49:24.844Z,45.27
2018-03-16T01:52:26.088Z,40.43
2018-03-16T01:55:28.054Z,38.33
2018-03-16T01:58:29.298Z,42.00
2018-03-16T02:01:30.591Z,37.90
2018-03-16T02:04:31.891Z,39.87
2018-03-16T02:07:33.104Z,42.63
2018-03-16T02:10:34.396Z,40.07
2018-03-16T02:13:35.645Z,40.33
2018-03-16T02:16:36.910Z,41.57
2018-03-16T02:19:38.147Z,39.17
2018-03-16T02:22:42.394Z,38.37
2018-03-16T02:25:43.657Z,42.63
2018-03-16T02:28:44.889Z,42.70
2018-03-16T02:31:46.840Z,41.63
2018-03-16T02:34:48.097Z,44.53
2018-03-16T02:37:49.355Z,41.67
2018-03-16T02:40:50.588Z,40.80
2018-03-16T02:43:51.815Z,50.10
2018-03-16T02:46:53.821Z,47.97
2018-03-16T02:49:55.098Z,47.80
2018-03-16T02:52:56.445Z,50.37
2018-03-16T02:55:57.752Z,48.60
2018-03-16T02:58:59.028Z,52.90
2018-03-16T03:02:00.275Z,49.20
2018-03-16T03:05:01.598Z,44.83
2018-03-16T03:08:02.844Z,49.20
2018-03-16T03:11:04.814Z,42.60
2018-03-16T03:14:06.036Z,43.70
2018-03-16T03:17:07.287Z,36.27
2018-03-16T03:20:08.500Z,40.93
2018-03-16T03:23:10.455Z,41.77
2018-03-16T03:26:11.699Z,36.63
2018-03-16T03:29:12.938Z,36.80
2018-03-16T03:32:14.180Z,31.97
2018-03-16T03:35:16.150Z,33.00
2018-03-16T03:38:18.141Z,35.80
2018-03-16T03:41:20.150Z,37.23
2018-03-16T03:44:21.440Z,44.53
2018-03-16T03:47:22.715Z,42.60
2018-03-16T03:50:23.943Z,36.67
2018-03-16T03:53:25.168Z,34.90
2018-03-16T03:56:27.135Z,38.30
2018-03-16T03:59:29.124Z,44.30
2018-03-16T04:02:31.118Z,36.90
2018-03-16T04:05:32.414Z,39.57
2018-03-16T04:08:33.616Z,39.13
2018-03-16T04:11:34.860Z,39.30
2018-03-16T04:14:36.101Z,44.50
2018-03-16T04:17:37.319Z,40.00
2018-03-16T04:20:39.263Z,41.90
2018-03-16T04:23:40.530Z,41.17
2018-03-16T04:26:41.794Z,42.10
2018-03-16T04:29:43.089Z,43.73
2018-03-16T04:32:45.049Z,46.50
2018-03-16T04:35:46.326Z,48.60
2018-03-16T04:38:48.300Z,49.80
2018-03-16T04:41:49.580Z,51.10
2018-03-16T04:44:51.554Z,54.93
2018-03-16T04:47:53.550Z,52.77
2018-03-16T04:50:54.841Z,53.63
2018-03-16T04:53:56.112Z,56.60
2018-03-16T04:56:57.445Z,55.23
2018-03-16T04:59:58.691Z,63.20
2018-03-16T05:03:00.698Z,59.60
2018-03-16T05:06:01.939Z,58.30
2018-03-16T05:09:03.948Z,56.80
2018-03-16T05:12:05.160Z,66.90
2018-03-16T05:15:06.521Z,61.70
2018-03-16T05:18:07.802Z,59.27
2018-03-16T05:21:09.829Z,53.90
2018-03-16T05:24:11.047Z,67.47
2018-03-16T05:27:13.053Z,53.53
2018-03-16T05:30:14.344Z,58.83
2018-03-16T05:33:15.604Z,51.63
2018-03-16T05:36:16.815Z,50.93
2018-03-16T05:39:18.786Z,53.53
2018-03-16T05:42:20.126Z,56.43
2018-03-16T05:45:21.375Z,53.10
2018-03-16T05:48:23.003Z,51.83
2018-03-16T05:51:25.007Z,52.33
2018-03-16T05:54:26.254Z,55.03
2018-03-16T05:57:28.218Z,54.10
2018-03-16T06:00:30.245Z,58.30
2018-03-16T06:03:31.487Z,52.17
2018-03-16T06:06:32.723Z,54.67
2018-03-16T06:09:34.710Z,57.53
2018-03-16T06:12:35.969Z,53.67
2018-03-16T06:15:37.951Z,58.30
2018-03-16T06:18:39.937Z,54.67
2018-03-16T06:21:41.907Z,55.63
2018-03-16T06:24:43.142Z,54.77
2018-03-16T06:27:44.350Z,49.13
2018-03-16T06:30:46.312Z,49.80
2018-03-16T06:33:48.325Z,56.90
2018-03-16T06:36:49.601Z,57.80
2018-03-16T06:39:50.853Z,63.73
2018-03-16T06:42:52.113Z,65.50
2018-03-16T06:45:53.351Z,52.70
2018-03-16T06:48:55.334Z,45.70
2018-03-16T06:51:57.325Z,52.13
2018-03-16T06:54:58.508Z,47.20
2018-03-16T06:57:59.725Z,42.93
2018-03-16T07:01:01.790Z,44.87
2018-03-16T07:04:03.039Z,43.43
2018-03-16T07:07:04.290Z,41.30
2018-03-16T07:10:05.511Z,43.20
2018-03-16T07:13:07.487Z,31.57
2018-03-16T07:16:09.814Z,43.50
2018-03-16T07:19:11.067Z,42.67
2018-03-16T07:22:12.300Z,34.50
2018-03-16T07:25:14.279Z,37.30
2018-03-16T07:28:16.228Z,32.90
2018-03-16T07:31:17.519Z,24.27
2018-03-16T07:34:19.492Z,27.23
2018-03-16T07:37:20.874Z,24.27
2018-03-16T07:40:22.862Z,27.23
2018-03-16T07:43:24.112Z,25.40
2018-03-16T07:46:26.083Z,25.37
2018-03-16T07:49:28.064Z,27.03
2018-03-16T07:52:30.057Z,23.67
2018-03-16T07:55:32.047Z,26.03
2018-03-16T07:58:33.282Z,26.20
2018-03-16T08:01:34.543Z,29.03
2018-03-16T08:04:35.774Z,25.20
2018-03-16T08:07:37.053Z,26.50
2018-03-16T08:10:38.268Z,27.70
2018-03-16T08:13:39.526Z,29.63
2018-03-16T08:16:40.758Z,28.90
2018-03-16T08:19:42.169Z,26.90
2018-03-16T08:22:43.402Z,25.80
2018-03-16T08:25:45.391Z,25.60
2018-03-16T08:28:47.393Z,25.57
2018-03-16T08:31:48.670Z,23.00
2018-03-16T08:34:49.915Z,25.83
2018-03-16T08:37:51.135Z,25.27
2018-03-16T08:40:52.411Z,32.00
2018-03-16T08:43:54.409Z,24.73
2018-03-16T08:46:55.624Z,22.93
2018-03-16T08:49:56.906Z,25.07
2018-03-16T08:52:58.139Z,21.80
2018-03-16T08:55:59.383Z,27.43
2018-03-16T08:59:00.610Z,22.80
2018-03-16T09:02:02.605Z,20.77
2018-03-16T09:05:03.832Z,21.93
2018-03-16T09:08:05.047Z,25.17
2018-03-16T09:11:06.267Z,23.00
2018-03-16T09:14:08.284Z,24.73
2018-03-16T09:17:09.582Z,26.10
2018-03-16T09:20:10.810Z,22.17
2018-03-16T09:23:12.076Z,21.20
2018-03-16T09:26:13.296Z,29.30
2018-03-16T09:29:14.515Z,32.20
2018-03-16T09:32:15.716Z,25.00
2018-03-16T09:35:16.958Z,25.13
2018-03-16T09:38:18.186Z,25.53
2018-03-16T09:41:19.457Z,25.30
2018-03-16T09:44:20.675Z,25.10
2018-03-16T09:47:22.681Z,27.53
2018-03-16T09:50:23.948Z,27.93
2018-03-16T09:53:25.308Z,26.53
2018-03-16T09:56:26.610Z,28.50
2018-03-16T09:59:27.840Z,24.00
2018-03-16T10:02:29.054Z,27.30
2018-03-16T10:05:30.680Z,21.97
2018-03-16T10:08:31.931Z,24.70
2018-03-16T10:11:33.254Z,22.97
2018-03-16T10:14:34.491Z,22.60
2018-03-16T10:17:35.778Z,24.90
2018-03-16T10:20:37.035Z,23.67
2018-03-16T10:23:38.265Z,24.10
2018-03-16T10:26:39.480Z,22.87
2018-03-16T10:29:40.810Z,21.30
2018-03-16T10:32:42.052Z,26.70
2018-03-16T10:35:43.295Z,23.80
2018-03-16T10:38:45.281Z,28.20
2018-03-16T10:41:46.517Z,30.83
2018-03-16T10:44:47.719Z,30.03
2018-03-16T10:47:48.947Z,27.70
2018-03-16T10:50:50.922Z,23.73
2018-03-16T10:53:52.260Z,23.40
2018-03-16T10:56:53.479Z,27.20
2018-03-16T10:59:54.716Z,25.50
2018-03-16T11:03:02.677Z,28.53
2018-03-16T11:06:03.952Z,29.40
2018-03-16T11:09:05.208Z,33.50
2018-03-16T11:12:06.426Z,30.93
2018-03-16T11:15:07.660Z,28.87
2018-03-16T11:18:08.918Z,34.87
2018-03-16T11:21:10.133Z,27.60
2018-03-16T11:24:12.122Z,31.30
2018-03-16T11:27:13.381Z,32.87
2018-03-16T11:30:14.619Z,29.73
2018-03-16T11:33:15.828Z,36.17
2018-03-16T11:36:17.094Z,31.03
2018-03-16T11:39:18.327Z,42.97
2018-03-16T11:42:19.582Z,28.00
2018-03-16T11:45:21.586Z,33.17
2018-03-16T11:48:22.826Z,31.43
2018-03-16T11:51:24.798Z,37.23
2018-03-16T11:54:26.808Z,31.37
2018-03-16T11:57:28.020Z,29.83
2018-03-16T12:00:29.243Z,29.77
2018-03-16T12:03:30.467Z,31.87
2018-03-16T12:06:32.495Z,32.07
2018-03-16T12:09:33.732Z,27.50
2018-03-16T12:12:34.956Z,27.30
2018-03-16T12:15:36.180Z,29.77
2018-03-16T12:18:37.454Z,30.80
2018-03-16T12:21:38.686Z,29.20
2018-03-16T12:24:39.907Z,32.87
2018-03-16T12:27:41.134Z,26.33
2018-03-16T12:30:42.379Z,30.50
2018-03-16T12:33:43.605Z,29.63
2018-03-16T12:36:45.644Z,28.93
2018-03-16T12:39:46.909Z,27.30
2018-03-16T12:42:48.169Z,27.00
2018-03-16T12:45:49.390Z,30.50
2018-03-16T12:48:51.393Z,27.23
2018-03-16T12:51:52.641Z,24.03
2018-03-16T12:54:53.860Z,22.37
2018-03-16T12:57:55.059Z,25.97
2018-03-16T13:00:57.052Z,27.30
2018-03-16T13:03:58.297Z,24.70
2018-03-16T13:07:00.270Z,24.17
2018-03-16T13:10:02.274Z,27.33
2018-03-16T13:13:03.526Z,25.03
2018-03-16T13:16:05.511Z,28.30
2018-03-16T13:19:07.471Z,27.00
2018-03-16T13:22:09.442Z,29.23
2018-03-16T13:25:10.675Z,20.77
2018-03-16T13:28:11.911Z,19.27
2018-03-16T13:31:13.150Z,20.83
2018-03-16T13:34:15.097Z,21.57
2018-03-16T13:37:16.479Z,16.70
2018-03-16T13:40:17.715Z,17.37
2018-03-16T13:43:18.967Z,15.67
2018-03-16T13:46:20.236Z,14.57
2018-03-16T13:49:21.458Z,16.23
2018-03-16T13:52:22.728Z,15.67
2018-03-16T13:55:23.990Z,16.63
2018-03-16T13:58:26.070Z,12.37
2018-03-16T14:01:27.303Z,13.47
2018-03-16T14:04:28.543Z,14.57
2018-03-16T14:07:29.781Z,12.50
2018-03-16T14:10:31.029Z,12.27
2018-03-16T14:13:32.270Z,10.17
2018-03-16T14:16:34.228Z,9.67
2018-03-16T14:19:36.247Z,10.63
2018-03-16T14:22:37.492Z,12.97
2018-03-16T14:25:39.470Z,9.77
2018-03-16T14:28:41.439Z,15.60
2018-03-16T14:31:43.473Z,14.33
2018-03-16T14:34:44.706Z,12.30
2018-03-16T14:37:45.998Z,15.63
2018-03-16T14:40:47.239Z,11.07
2018-03-16T14:43:48.494Z,8.97
2018-03-16T14:46:49.740Z,8.90
2018-03-16T14:49:51.710Z,7.30
2018-03-16T14:52:52.923Z,8.57
2018-03-16T14:55:54.152Z,11.67
2018-03-16T14:58:56.160Z,8.27
2018-03-16T15:01:57.414Z,13.13
2018-03-16T15:04:58.672Z,11.60
2018-03-16T15:07:59.960Z,11.40
2018-03-16T15:11:01.234Z,15.33
2018-03-16T15:14:02.480Z,10.67
2018-03-16T15:17:03.742Z,7.70
2018-03-16T15:20:05.035Z,9.53
2018-03-16T15:23:06.289Z,9.20
2018-03-16T15:26:07.557Z,8.97
2018-03-16T15:29:08.767Z,9.37
2018-03-16T15:32:10.751Z,13.10
2018-03-16T15:35:12.699Z,10.00
2018-03-16T15:38:13.943Z,23.57
2018-03-16T15:41:15.185Z,12.53
2018-03-16T15:44:16.463Z,13.33
2018-03-16T15:47:17.767Z,13.20
2018-03-16T15:50:18.962Z,11.63
2018-03-16T15:53:20.188Z,12.23
2018-03-16T15:56:22.178Z,20.17
2018-03-16T15:59:24.191Z,14.27
2018-03-16T16:02:25.516Z,14.30
2018-03-16T16:05:26.878Z,16.90
2018-03-16T16:08:28.503Z,15.80
2018-03-16T16:11:29.822Z,18.80
2018-03-16T16:14:31.472Z,13.10
2018-03-16T16:17:32.766Z,13.00
2018-03-16T16:20:34.473Z,14.53
2018-03-16T16:23:35.748Z,12.83
2018-03-16T16:26:36.988Z,11.93
2018-03-16T16:29:38.223Z,14.83
2018-03-16T16:32:40.259Z,17.17
2018-03-16T16:35:41.486Z,15.50
2018-03-16T16:38:42.783Z,14.47
2018-03-16T16:41:44.031Z,19.00
2018-03-16T16:44:45.349Z,18.90
2018-03-16T16:47:46.597Z,17.50
2018-03-16T16:50:47.866Z,20.00
2018-03-16T16:53:49.113Z,19.13
2018-03-16T16:56:50.344Z,19.67
2018-03-16T16:59:51.609Z,16.97
2018-03-16T17:02:53.579Z,19.07
2018-03-16T17:05:54.857Z,24.50
2018-03-16T17:08:56.145Z,18.73
2018-03-16T17:11:57.383Z,19.50
2018-03-16T17:14:58.659Z,19.60
2018-03-16T17:18:00.023Z,15.90
2018-03-16T17:21:01.347Z,35.10
2018-03-16T17:24:02.676Z,16.13
2018-03-16T17:27:04.018Z,15.97
2018-03-16T17:30:05.244Z,20.23
2018-03-16T17:33:06.475Z,19.17
2018-03-16T17:36:07.727Z,20.33
2018-03-16T17:39:09.748Z,15.23
2018-03-16T17:42:11.717Z,13.33
2018-03-16T17:45:13.734Z,18.77
2018-03-16T17:48:14.981Z,19.83
2018-03-16T17:51:16.259Z,21.80
2018-03-16T17:54:17.496Z,16.87
2018-03-16T17:57:19.495Z,19.30
2018-03-16T18:00:20.729Z,19.50
2018-03-16T18:03:22.746Z,16.07
2018-03-16T18:06:23.960Z,21.40
2018-03-16T18:09:25.184Z,17.67
2018-03-16T18:12:26.425Z,21.80
2018-03-16T18:15:27.714Z,17.33
2018-03-16T18:18:28.985Z,16.50
2018-03-16T18:21:30.243Z,14.80
2018-03-16T18:24:31.489Z,14.03
2018-03-16T18:27:32.715Z,14.60
2018-03-16T18:30:34.680Z,15.93
2018-03-16T18:33:35.920Z,14.33
2018-03-16T18:36:37.151Z,14.67
2018-03-16T18:39:38.405Z,16.07
2018-03-16T18:42:39.671Z,15.50
2018-03-16T18:45:40.805Z,16.83
2018-03-16T18:48:42.783Z,14.30
2018-03-16T18:51:44.760Z,14.13
2018-03-16T18:54:46.751Z,12.90
2018-03-16T18:57:48.752Z,15.40
2018-03-16T19:00:49.991Z,14.90
2018-03-16T19:03:51.973Z,13.83
2018-03-16T19:06:53.997Z,13.23
2018-03-16T19:09:55.222Z,15.30
2018-03-16T19:12:57.196Z,15.80
2018-03-16T19:15:59.195Z,14.77
2018-03-16T19:19:00.435Z,14.27
2018-03-16T19:22:02.443Z,14.43
2018-03-16T19:25:03.696Z,13.73
2018-03-16T19:28:04.932Z,14.03
2018-03-16T19:31:06.919Z,11.53
2018-03-16T19:34:08.171Z,12.70
2018-03-16T19:37:09.418Z,14.37
2018-03-16T19:40:10.681Z,14.57
2018-03-16T19:43:11.914Z,14.33
2018-03-16T19:46:13.209Z,11.30
2018-03-16T19:49:14.462Z,13.77
2018-03-16T19:52:15.728Z,14.67
2018-03-16T19:55:16.944Z,12.73
2018-03-16T19:58:18.234Z,13.90
2018-03-16T20:01:19.479Z,12.50
2018-03-16T20:04:20.739Z,14.70
2018-03-16T20:07:21.978Z,15.20
2018-03-16T20:10:23.954Z,19.97
2018-03-16T20:13:25.926Z,11.60
2018-03-16T20:16:27.152Z,15.73
2018-03-16T20:19:28.383Z,13.60
2018-03-16T20:22:29.642Z,14.30
2018-03-16T20:25:30.930Z,13.53
2018-03-16T20:28:32.193Z,21.40
2018-03-16T20:31:33.421Z,14.80
2018-03-16T20:34:35.425Z,15.40
2018-03-16T20:37:36.662Z,15.13
2018-03-16T20:40:38.645Z,17.87
2018-03-16T20:43:40.618Z,16.50
2018-03-16T20:46:42.732Z,16.77
2018-03-16T20:49:43.969Z,17.87
2018-03-16T20:52:45.956Z,15.80
2018-03-16T20:55:47.949Z,15.30
2018-03-16T20:58:49.189Z,19.63
2018-03-16T21:01:51.153Z,18.20
2018-03-16T21:04:52.399Z,18.43
2018-03-16T21:07:53.658Z,16.40
2018-03-16T21:10:54.903Z,16.37
2018-03-16T21:13:56.116Z,14.53
2018-03-16T21:16:58.095Z,19.53
2018-03-16T21:20:00.110Z,16.80
2018-03-16T21:23:01.382Z,14.60
2018-03-16T21:26:02.628Z,16.43
2018-03-16T21:29:03.898Z,18.03
2018-03-16T21:32:05.128Z,14.40
2018-03-16T21:35:07.138Z,19.10
2018-03-16T21:38:08.385Z,16.13
2018-03-16T21:41:10.401Z,18.40
2018-03-16T21:44:11.661Z,15.10
2018-03-16T21:47:12.897Z,24.87
2018-03-16T21:50:14.895Z,25.57
2018-03-16T21:53:16.144Z,18.33
2018-03-16T21:56:17.388Z,17.83
2018-03-16T21:59:19.394Z,14.47
2018-03-16T22:02:20.614Z,16.20
2018-03-16T22:05:21.860Z,15.50
2018-03-16T22:08:23.109Z,14.07
2018-03-16T22:11:24.338Z,17.37
2018-03-16T22:14:25.545Z,17.50
2018-03-16T22:17:26.809Z,14.17
2018-03-16T22:20:28.076Z,13.77
2018-03-16T22:23:29.320Z,15.70
2018-03-16T22:26:30.524Z,15.13
2018-03-16T22:29:31.764Z,14.97
2018-03-16T22:32:33.004Z,17.77
2018-03-16T22:35:34.228Z,15.40
2018-03-16T22:38:36.194Z,18.17
2018-03-16T22:41:37.419Z,13.30
2018-03-16T22:44:38.732Z,15.33
2018-03-16T22:47:40.768Z,13.20
2018-03-16T22:50:42.006Z,16.57
2018-03-16T22:53:43.304Z,15.33
2018-03-16T22:56:44.542Z,14.03
2018-03-16T22:59:45.760Z,14.63
2018-03-16T23:02:47.723Z,14.83
2018-03-16T23:05:48.944Z,14.53
2018-03-16T23:08:50.200Z,14.83
2018-03-16T23:11:51.480Z,13.97
2018-03-16T23:14:52.684Z,14.30
2018-03-16T23:17:54.156Z,11.90
2018-03-16T23:20:56.164Z,13.27
2018-03-16T23:23:57.399Z,15.20
2018-03-16T23:26:59.491Z,12.60
2018-03-16T23:30:01.491Z,12.53
2018-03-16T23:33:02.729Z,14.17
2018-03-16T23:36:05.486Z,14.07
2018-03-16T23:39:07.536Z,16.17
2018-03-16T23:42:08.788Z,14.50
2018-03-16T23:45:10.015Z,13.90
2018-03-16T23:48:11.231Z,14.87
2018-03-16T23:51:12.455Z,13.50
2018-03-16T23:54:14.443Z,13.00
2018-03-16T23:57:16.403Z,16.80
